createdAt,value
2022-12-27T00:00:40.643Z,100311.66
2022-12-27T00:01:43.785Z,100304.78
2022-12-27T00:02:48.282Z,100308.14
2022-12-27T00:03:52.065Z,100314.34
2022-12-27T00:04:55.580Z,100315.17
2022-12-27T00:05:59.076Z,100307.70
2022-12-27T00:07:03.317Z,100308.45
2022-12-27T00:08:06.497Z,100299.90
2022-12-27T00:09:09.162Z,100305.20
2022-12-27T00:10:12.706Z,100312.33
2022-12-27T00:11:17.430Z,100311.52
2022-12-27T00:12:21.718Z,100321.00
2022-12-27T00:13:24.339Z,100314.61
2022-12-27T00:14:29.620Z,100299.78
2022-12-27T00:15:36.152Z,100307.63
2022-12-27T00:16:39.874Z,100309.90
2022-12-27T00:17:42.338Z,100303.77
2022-12-27T00:18:46.048Z,100302.98
2022-12-27T00:19:48.812Z,100304.67
2022-12-27T00:20:55.027Z,100305.02
2022-12-27T00:21:58.846Z,100301.42
2022-12-27T00:23:02.926Z,100301.50
2022-12-27T00:24:05.447Z,100301.27
2022-12-27T00:25:09.249Z,100304.70
2022-12-27T00:26:15.211Z,100302.83
2022-12-27T00:27:18.572Z,100305.45
2022-12-27T00:28:22.694Z,100299.48
2022-12-27T00:29:27.453Z,100311.54
2022-12-27T00:30:33.883Z,100307.09
2022-12-27T00:31:37.308Z,100307.17
2022-12-27T00:32:39.640Z,100297.64
2022-12-27T00:33:45.281Z,100296.94
2022-12-27T00:34:48.749Z,100298.10
2022-12-27T00:35:52.214Z,100304.00
2022-12-27T00:36:55.867Z,100290.85
2022-12-27T00:37:59.963Z,100286.48
2022-12-27T00:39:04.026Z,100283.00
2022-12-27T00:40:09.722Z,100283.97
2022-12-27T00:41:14.301Z,100284.60
2022-12-27T00:42:17.982Z,100265.44
2022-12-27T00:43:23.484Z,100270.12
2022-12-27T00:44:27.648Z,100262.20
2022-12-27T00:45:31.028Z,100265.52
2022-12-27T00:46:33.847Z,100264.42
2022-12-27T00:47:37.821Z,100259.14
2022-12-27T00:48:41.411Z,100255.80
2022-12-27T00:49:43.647Z,100260.08
2022-12-27T00:50:48.938Z,100260.05
2022-12-27T00:51:53.133Z,100254.53
2022-12-27T00:52:58.570Z,100246.15
2022-12-27T00:54:04.037Z,100239.28
2022-12-27T00:55:08.509Z,100247.05
2022-12-27T00:56:12.761Z,100237.56
2022-12-27T00:57:17.315Z,100248.03
2022-12-27T00:58:19.948Z,100251.18
2022-12-27T00:59:23.254Z,100247.42
2022-12-27T01:00:26.660Z,100244.97
2022-12-27T01:01:30.938Z,100235.64
2022-12-27T01:02:34.607Z,100243.25
2022-12-27T01:03:37.210Z,100241.77
2022-12-27T01:04:41.426Z,100239.89
2022-12-27T01:05:44.701Z,100239.82
2022-12-27T01:06:48.000Z,100230.05
2022-12-27T01:07:50.344Z,100233.73
2022-12-27T01:08:53.534Z,100230.21
2022-12-27T01:09:57.775Z,100229.27
2022-12-27T01:11:01.404Z,100222.37
2022-12-27T01:12:04.686Z,100227.64
2022-12-27T01:13:07.663Z,100223.38
2022-12-27T01:14:11.497Z,100221.58
2022-12-27T01:15:14.987Z,100219.87
2022-12-27T01:16:19.493Z,100222.41
2022-12-27T01:17:23.048Z,100216.28
2022-12-27T01:18:26.658Z,100217.91
2022-12-27T01:19:29.118Z,100212.63
2022-12-27T01:20:33.388Z,100218.68
2022-12-27T01:21:36.860Z,100223.87
2022-12-27T01:22:40.367Z,100221.42
2022-12-27T01:23:45.144Z,100217.86
2022-12-27T01:24:49.504Z,100216.87
2022-12-27T01:25:54.628Z,100220.31
2022-12-27T01:27:00.366Z,100214.14
2022-12-27T01:28:03.729Z,100221.78
2022-12-27T01:29:07.350Z,100220.97
2022-12-27T01:30:12.732Z,100217.58
2022-12-27T01:31:19.135Z,100221.87
2022-12-27T01:32:22.562Z,100219.25
2022-12-27T01:33:26.070Z,100217.53
2022-12-27T01:34:31.871Z,100219.54
2022-12-27T01:35:35.165Z,100214.02
2022-12-27T01:36:39.613Z,100215.81
2022-12-27T01:37:44.777Z,100208.98
2022-12-27T01:38:48.163Z,100214.22
2022-12-27T01:39:51.890Z,100214.30
2022-12-27T01:40:54.979Z,100213.73
2022-12-27T01:42:17.295Z,100210.19
2022-12-27T01:43:20.058Z,100209.89
2022-12-27T01:44:40.513Z,100201.39
2022-12-27T01:45:43.824Z,100205.55
2022-12-27T01:46:46.138Z,100208.13
2022-12-27T01:47:51.315Z,100195.00
2022-12-27T01:48:55.829Z,100191.41
2022-12-27T01:50:16.913Z,100198.48
2022-12-27T01:51:21.488Z,100187.84
2022-12-27T01:52:25.680Z,100183.43
2022-12-27T01:53:30.804Z,100172.92
2022-12-27T01:54:33.976Z,100177.38
2022-12-27T01:55:56.664Z,100175.49
2022-12-27T01:57:00.228Z,100169.41
2022-12-27T01:58:04.306Z,100162.02
2022-12-27T01:59:10.912Z,100159.32
2022-12-27T02:00:16.484Z,100161.17
2022-12-27T02:01:21.667Z,100155.13
2022-12-27T02:02:25.576Z,100145.72
2022-12-27T02:03:31.490Z,100146.42
2022-12-27T02:04:35.078Z,100138.48
2022-12-27T02:05:39.781Z,100151.56
2022-12-27T02:06:44.181Z,100137.62
2022-12-27T02:07:51.955Z,100136.77
2022-12-27T02:08:58.689Z,100141.91
2022-12-27T02:10:04.013Z,100132.30
2022-12-27T02:11:08.464Z,100124.31
2022-12-27T02:12:11.945Z,100137.23
2022-12-27T02:13:16.883Z,100129.69
2022-12-27T02:14:26.160Z,100127.20
2022-12-27T02:15:27.535Z,100131.23
2022-12-27T02:16:31.052Z,100131.05
2022-12-27T02:17:33.372Z,100122.60
2022-12-27T02:18:35.667Z,100121.02
2022-12-27T02:19:43.797Z,100125.27
2022-12-27T02:20:47.857Z,100121.58
2022-12-27T02:21:58.571Z,100119.27
2022-12-27T02:23:39.950Z,100120.03
2022-12-27T02:24:44.514Z,100121.80
2022-12-27T02:25:58.051Z,100115.44
2022-12-27T02:27:08.945Z,100123.50
2022-12-27T02:28:15.878Z,100118.06
2022-12-27T02:29:21.274Z,100121.34
2022-12-27T02:30:25.536Z,100118.96
2022-12-27T02:31:40.598Z,100116.39
2022-12-27T02:32:53.543Z,100110.42
2022-12-27T02:33:57.962Z,100110.25
2022-12-27T02:35:21.296Z,100106.86
2022-12-27T02:36:30.558Z,100105.74
2022-12-27T02:37:35.039Z,100105.65
2022-12-27T02:38:41.229Z,100104.08
2022-12-27T02:39:46.322Z,100104.75
2022-12-27T02:41:09.102Z,100101.95
2022-12-27T02:42:30.675Z,100091.66
2022-12-27T02:43:53.714Z,100083.86
2022-12-27T02:45:15.409Z,100087.38
2022-12-27T02:46:41.828Z,100085.66
2022-12-27T02:48:05.846Z,100082.28
2022-12-27T02:49:46.462Z,100080.43
2022-12-27T02:51:18.244Z,100077.77
2022-12-27T02:52:47.708Z,100065.31
2022-12-27T02:53:53.664Z,100070.55
2022-12-27T02:55:09.567Z,100075.86
2022-12-27T02:56:43.782Z,100067.94
2022-12-27T02:57:47.889Z,100067.94
2022-12-27T02:59:03.143Z,100064.41
2022-12-27T03:00:26.211Z,100055.52
2022-12-27T03:01:53.693Z,100053.84
2022-12-27T03:03:20.527Z,100056.42
2022-12-27T03:04:24.809Z,100053.75
2022-12-27T03:05:33.585Z,100055.47
2022-12-27T03:06:47.852Z,100044.23
2022-12-27T03:07:55.665Z,100051.59
2022-12-27T03:09:20.104Z,100047.66
2022-12-27T03:10:35.544Z,100038.95
2022-12-27T03:13:32.821Z,100035.81
2022-12-27T03:14:56.654Z,100035.91
2022-12-27T03:16:07.802Z,100032.77
2022-12-27T03:17:13.308Z,100025.77
2022-12-27T03:18:30.418Z,100023.05
2022-12-27T03:19:53.947Z,100023.15
2022-12-27T03:21:20.125Z,100022.09
2022-12-27T03:22:44.106Z,100023.10
2022-12-27T03:24:10.170Z,100014.54
2022-12-27T03:25:30.389Z,100015.30
2022-12-27T03:26:35.969Z,100014.39
2022-12-27T03:27:39.797Z,100008.45
2022-12-27T03:29:02.511Z,100009.58
2022-12-27T03:30:26.815Z,100003.50
2022-12-27T03:31:49.334Z,99999.69
2022-12-27T03:33:15.261Z,100006.69
2022-12-27T03:34:31.757Z,100008.73
2022-12-27T03:35:43.291Z,100009.53
2022-12-27T03:37:06.904Z,100012.92
2022-12-27T03:38:13.279Z,100009.25
2022-12-27T03:39:18.341Z,99995.97
2022-12-27T03:40:23.538Z,100004.78
2022-12-27T03:41:47.402Z,100011.83
2022-12-27T03:43:12.317Z,100012.53
2022-12-27T03:44:24.554Z,100013.06
2022-12-27T03:45:31.019Z,100016.30
2022-12-27T03:46:35.946Z,100006.59
2022-12-27T03:47:47.439Z,99998.84
2022-12-27T03:49:09.213Z,100003.12
2022-12-27T03:50:28.810Z,99991.89
2022-12-27T03:51:34.131Z,99990.36
2022-12-27T03:52:43.259Z,99984.19
2022-12-27T03:53:47.998Z,99990.18
2022-12-27T03:54:52.679Z,99989.27
2022-12-27T03:55:56.583Z,100002.27
2022-12-27T03:57:04.162Z,100002.27
2022-12-27T03:58:07.356Z,99999.84
2022-12-27T03:59:12.104Z,100006.48
2022-12-27T04:00:15.916Z,100000.50
2022-12-27T04:01:19.659Z,99999.55
2022-12-27T04:02:23.412Z,99993.45
2022-12-27T04:03:27.236Z,100007.55
2022-12-27T04:04:30.565Z,99998.84
2022-12-27T04:05:33.837Z,99991.64
2022-12-27T04:06:38.303Z,99999.36
2022-12-27T04:08:01.239Z,99982.94
2022-12-27T04:09:23.442Z,99989.93
2022-12-27T04:10:45.005Z,99986.22
2022-12-27T04:12:06.065Z,99990.69
2022-12-27T04:13:29.252Z,99989.83
2022-12-27T04:14:52.247Z,99984.84
2022-12-27T04:16:14.222Z,99978.70
2022-12-27T04:17:37.784Z,99975.12
2022-12-27T04:18:59.364Z,99975.12
2022-12-27T04:20:20.114Z,99972.47
2022-12-27T04:21:42.853Z,99968.19
2022-12-27T04:23:05.134Z,99966.13
2022-12-27T04:24:29.536Z,99959.27
2022-12-27T04:25:53.823Z,99962.84
2022-12-27T04:27:15.007Z,99956.70
2022-12-27T04:28:36.766Z,99952.43
2022-12-27T04:29:57.393Z,99958.67
2022-12-27T04:31:20.041Z,99950.72
2022-12-27T04:32:42.322Z,99938.59
2022-12-27T04:34:03.051Z,99939.16
2022-12-27T04:35:07.594Z,99947.86
2022-12-27T04:36:10.896Z,99935.38
2022-12-27T04:37:20.086Z,99937.08
2022-12-27T04:38:24.291Z,99936.06
2022-12-27T04:39:30.613Z,99937.94
2022-12-27T04:40:51.552Z,99937.13
2022-12-27T04:42:12.822Z,99934.46
2022-12-27T04:43:33.771Z,99932.70
2022-12-27T04:44:56.599Z,99933.45
2022-12-27T04:46:19.554Z,99936.92
2022-12-27T04:47:41.215Z,99939.59
2022-12-27T04:49:02.892Z,99926.31
2022-12-27T04:50:27.477Z,99921.12
2022-12-27T04:51:48.127Z,99915.84
2022-12-27T04:53:09.807Z,99927.91
2022-12-27T04:54:38.269Z,99931.50
2022-12-27T04:55:42.920Z,99934.01
2022-12-27T04:56:46.318Z,99947.75
2022-12-27T04:57:49.986Z,99947.10
2022-12-27T04:59:13.826Z,99946.35
2022-12-27T05:00:36.328Z,99946.09
2022-12-27T05:01:57.665Z,99938.18
2022-12-27T05:03:01.918Z,99936.73
2022-12-27T05:04:05.647Z,99941.81
2022-12-27T05:05:09.940Z,99933.05
2022-12-27T05:06:13.069Z,99938.44
2022-12-27T05:07:34.634Z,99936.62
2022-12-27T05:08:55.794Z,99933.95
2022-12-27T05:10:19.257Z,99925.41
2022-12-27T05:11:42.698Z,99925.24
2022-12-27T05:13:05.961Z,99914.22
2022-12-27T05:14:11.129Z,99904.56
2022-12-27T05:15:14.401Z,99902.80
2022-12-27T05:16:18.723Z,99907.93
2022-12-27T05:17:22.916Z,99907.13
2022-12-27T05:18:26.081Z,99904.35
2022-12-27T05:19:31.371Z,99908.03
2022-12-27T05:20:35.634Z,99907.02
2022-12-27T05:21:45.097Z,99900.88
2022-12-27T05:23:08.630Z,99895.14
2022-12-27T05:24:30.517Z,99886.32
2022-12-27T05:25:37.770Z,99893.82
2022-12-27T05:26:41.283Z,99902.37
2022-12-27T05:27:44.604Z,99903.08
2022-12-27T05:28:47.766Z,99910.83
2022-12-27T05:29:51.823Z,99910.67
2022-12-27T05:30:55.915Z,99912.27
2022-12-27T05:31:59.330Z,99912.38
2022-12-27T05:33:03.366Z,99924.89
2022-12-27T05:34:08.877Z,99921.50
2022-12-27T05:35:14.115Z,99917.61
2022-12-27T05:36:18.263Z,99923.45
2022-12-27T05:37:23.215Z,99915.00
2022-12-27T05:38:26.644Z,99911.63
2022-12-27T05:39:32.450Z,99906.28
2022-12-27T05:40:36.262Z,99911.41
2022-12-27T05:41:39.467Z,99907.99
2022-12-27T05:42:41.904Z,99909.50
2022-12-27T05:43:47.289Z,99909.23
2022-12-27T05:44:50.401Z,99915.69
2022-12-27T05:45:54.467Z,99910.45
2022-12-27T05:46:59.221Z,99913.72
2022-12-27T05:48:01.502Z,99906.72
2022-12-27T05:49:05.871Z,99912.21
2022-12-27T05:50:09.872Z,99913.89
2022-12-27T05:51:15.881Z,99919.02
2022-12-27T05:52:22.988Z,99916.81
2022-12-27T05:53:27.104Z,99928.04
2022-12-27T05:54:30.587Z,99926.27
2022-12-27T05:55:33.767Z,99919.33
2022-12-27T05:56:36.979Z,99919.22
2022-12-27T05:57:40.216Z,99924.31
2022-12-27T05:58:43.040Z,99918.31
2022-12-27T05:59:46.153Z,99923.77
2022-12-27T06:00:49.381Z,99924.67
2022-12-27T06:01:52.335Z,99919.08
2022-12-27T06:02:55.931Z,99924.89
2022-12-27T06:04:00.462Z,99917.83
2022-12-27T06:05:05.036Z,99916.92
2022-12-27T06:06:09.698Z,99918.63
2022-12-27T06:07:15.049Z,99914.24
2022-12-27T06:08:18.773Z,99915.02
2022-12-27T06:09:22.480Z,99920.99
2022-12-27T06:10:25.877Z,99915.64
2022-12-27T06:11:31.984Z,99919.06
2022-12-27T06:12:38.774Z,99915.75
2022-12-27T06:13:42.659Z,99916.72
2022-12-27T06:14:46.174Z,99911.48
2022-12-27T06:15:50.702Z,99911.48
2022-12-27T06:16:54.333Z,99902.54
2022-12-27T06:17:58.866Z,99906.87
2022-12-27T06:19:01.553Z,99905.84
2022-12-27T06:20:05.046Z,99906.07
2022-12-27T06:21:12.104Z,99905.22
2022-12-27T06:22:14.701Z,99900.89
2022-12-27T06:23:17.347Z,99902.54
2022-12-27T06:24:19.797Z,99891.94
2022-12-27T06:25:22.467Z,99904.08
2022-12-27T06:26:26.064Z,99904.93
2022-12-27T06:27:29.201Z,99902.11
2022-12-27T06:28:32.670Z,99894.19
2022-12-27T06:29:34.913Z,99898.34
2022-12-27T06:30:38.426Z,99898.28
2022-12-27T06:31:41.145Z,99893.33
2022-12-27T06:32:44.409Z,99891.45
2022-12-27T06:33:48.150Z,99893.16
2022-12-27T06:34:51.506Z,99894.13
2022-12-27T06:35:56.812Z,99900.23
2022-12-27T06:37:00.196Z,99894.24
2022-12-27T06:38:04.246Z,99905.58
2022-12-27T06:39:09.825Z,99903.59
2022-12-27T06:40:13.640Z,99899.08
2022-12-27T06:41:21.910Z,99903.20
2022-12-27T06:42:25.245Z,99900.41
2022-12-27T06:43:27.893Z,99901.50
2022-12-27T06:44:32.000Z,99901.20
2022-12-27T06:45:35.711Z,99901.32
2022-12-27T06:46:40.280Z,99901.55
2022-12-27T06:47:42.757Z,99904.91
2022-12-27T06:48:47.934Z,99910.84
2022-12-27T06:49:52.180Z,99902.97
2022-12-27T06:50:56.083Z,99907.24
2022-12-27T06:52:01.963Z,99896.60
2022-12-27T06:53:04.252Z,99904.47
2022-12-27T06:54:07.649Z,99895.57
2022-12-27T06:55:10.948Z,99903.55
2022-12-27T06:56:18.034Z,99899.22
2022-12-27T06:57:22.236Z,99898.31
2022-12-27T06:58:25.744Z,99901.61
2022-12-27T06:59:28.726Z,99905.70
2022-12-27T07:00:32.021Z,99899.66
2022-12-27T07:01:36.344Z,99904.05
2022-12-27T07:02:40.494Z,99899.05
2022-12-27T07:03:51.279Z,99894.48
2022-12-27T07:04:54.424Z,99900.70
2022-12-27T07:05:57.684Z,99896.25
2022-12-27T07:07:01.878Z,99896.98
2022-12-27T07:08:05.964Z,99897.84
2022-12-27T07:09:09.358Z,99897.22
2022-12-27T07:10:13.972Z,99899.78
2022-12-27T07:11:18.247Z,99901.43
2022-12-27T07:12:21.873Z,99892.77
2022-12-27T07:13:25.677Z,99894.59
2022-12-27T07:14:29.829Z,99903.14
2022-12-27T07:15:33.417Z,99900.64
2022-12-27T07:16:37.716Z,99896.30
2022-12-27T07:17:40.842Z,99897.78
2022-12-27T07:18:45.251Z,99894.98
2022-12-27T07:19:48.905Z,99887.58
2022-12-27T07:20:52.195Z,99897.77
2022-12-27T07:21:55.802Z,99889.17
2022-12-27T07:23:00.565Z,99887.34
2022-12-27T07:24:03.968Z,99887.34
2022-12-27T07:25:10.405Z,99888.84
2022-12-27T07:26:15.601Z,99889.91
2022-12-27T07:27:19.846Z,99892.09
2022-12-27T07:28:23.734Z,99886.79
2022-12-27T07:29:28.800Z,99881.36
2022-12-27T07:30:35.021Z,99879.48
2022-12-27T07:31:38.537Z,99872.13
2022-12-27T07:32:41.923Z,99870.42
2022-12-27T07:33:46.088Z,99872.73
2022-12-27T07:34:49.570Z,99874.44
2022-12-27T07:35:53.690Z,99869.56
2022-12-27T07:36:56.992Z,99872.06
2022-12-27T07:38:00.237Z,99869.44
2022-12-27T07:39:04.796Z,99868.41
2022-12-27T07:40:10.234Z,99874.44
2022-12-27T07:41:14.695Z,99871.27
2022-12-27T07:42:20.888Z,99875.14
2022-12-27T07:43:27.731Z,99862.17
2022-12-27T07:44:35.111Z,99859.62
2022-12-27T07:45:43.033Z,99864.98
2022-12-27T07:46:46.336Z,99863.03
2022-12-27T07:47:51.252Z,99867.94
2022-12-27T07:48:57.248Z,99861.58
2022-12-27T07:50:00.143Z,99865.82
2022-12-27T07:51:03.962Z,99868.38
2022-12-27T07:52:07.262Z,99867.81
2022-12-27T07:53:10.872Z,99871.86
2022-12-27T11:28:25.669Z,99762.70
2022-12-27T11:29:31.535Z,99768.66
2022-12-27T11:30:36.342Z,99761.37
2022-12-27T11:31:43.954Z,99756.47
2022-12-27T11:32:49.089Z,99752.14
2022-12-27T11:33:53.843Z,99756.22
2022-12-27T11:34:58.533Z,99757.75
2022-12-27T11:36:02.000Z,99757.67
2022-12-27T11:37:12.291Z,99762.86
2022-12-27T11:38:20.095Z,99747.14
2022-12-27T11:39:34.322Z,99743.41
2022-12-27T11:40:38.065Z,99746.38
2022-12-27T11:41:45.582Z,99743.82
2022-12-27T11:42:49.680Z,99741.59
2022-12-27T11:43:55.163Z,99741.05
2022-12-27T11:45:06.041Z,99734.84
2022-12-27T11:46:11.456Z,99733.55
2022-12-27T11:47:17.037Z,99731.59
2022-12-27T11:48:23.303Z,99745.03
2022-12-27T11:49:29.194Z,99738.66
2022-12-27T11:50:42.308Z,99744.26
2022-12-27T11:51:49.245Z,99735.14
2022-12-27T11:53:04.147Z,99731.66
2022-12-27T11:54:09.342Z,99730.43
2022-12-27T11:55:32.043Z,99736.19
2022-12-27T11:56:39.749Z,99737.32
2022-12-27T11:57:46.555Z,99736.47
2022-12-27T11:58:54.433Z,99740.28
2022-12-27T12:00:02.149Z,99740.97
2022-12-27T12:01:09.090Z,99739.27
2022-12-27T12:02:31.633Z,99740.20
2022-12-27T12:03:49.552Z,99742.37
2022-12-27T12:04:55.012Z,99732.76
2022-12-27T12:06:05.409Z,99740.09
2022-12-27T12:07:10.820Z,99742.56
2022-12-27T12:08:17.256Z,99743.30
2022-12-27T12:09:37.352Z,99744.23
2022-12-27T12:10:52.445Z,99740.25
2022-12-27T12:11:58.671Z,99741.35
2022-12-27T12:13:07.189Z,99739.23
2022-12-27T12:14:13.620Z,99739.16
2022-12-27T12:15:25.373Z,99739.81
2022-12-27T12:16:41.115Z,99752.82
2022-12-27T12:17:49.648Z,99755.28
2022-12-27T12:19:07.131Z,99760.39
2022-12-27T12:20:19.391Z,99755.12
2022-12-27T12:21:27.537Z,99751.63
2022-12-27T12:22:47.819Z,99755.36
2022-12-27T12:24:08.338Z,99757.75
2022-12-27T12:25:18.947Z,99750.54
2022-12-27T12:26:22.359Z,99748.16
2022-12-27T12:27:36.242Z,99748.56
2022-12-27T12:28:59.661Z,99747.83
2022-12-27T12:30:13.953Z,99745.55
2022-12-27T12:31:35.200Z,99738.14
2022-12-27T12:32:46.331Z,99737.12
2022-12-27T12:34:05.995Z,99734.48
2022-12-27T12:35:28.207Z,99727.09
2022-12-27T12:36:35.681Z,99724.38
2022-12-27T12:37:41.177Z,99720.03
2022-12-27T12:38:46.454Z,99718.08
2022-12-27T12:39:52.674Z,99724.29
2022-12-27T12:41:09.434Z,99724.70
2022-12-27T12:42:20.675Z,99730.83
2022-12-27T12:43:27.835Z,99729.98
2022-12-27T12:44:52.644Z,99732.53
2022-12-27T12:46:13.366Z,99736.27
2022-12-27T12:47:35.928Z,99735.09
2022-12-27T12:48:58.089Z,99733.38
2022-12-27T12:50:05.420Z,99731.08
2022-12-27T12:51:20.573Z,99737.03
2022-12-27T12:52:25.703Z,99735.09
2022-12-27T12:53:47.940Z,99739.67
2022-12-27T12:55:10.247Z,99751.06
2022-12-27T12:56:33.398Z,99748.52
2022-12-27T12:57:57.583Z,99745.23
2022-12-27T12:59:16.479Z,99740.03
2022-12-27T13:00:25.590Z,99742.67
2022-12-27T13:01:51.000Z,99742.59
2022-12-27T13:03:01.297Z,99743.52
2022-12-27T13:04:09.529Z,99748.03
2022-12-27T13:05:20.860Z,99741.27
2022-12-27T13:06:25.300Z,99736.80
2022-12-27T13:07:39.378Z,99730.43
2022-12-27T13:08:47.171Z,99728.20
2022-12-27T13:09:52.363Z,99735.77
2022-12-27T13:11:12.638Z,99729.73
2022-12-27T13:12:33.494Z,99727.70
2022-12-27T13:13:48.811Z,99727.42
2022-12-27T13:14:58.609Z,99730.23
2022-12-27T13:16:13.243Z,99730.51
2022-12-27T13:17:18.639Z,99738.25
2022-12-27T13:18:30.169Z,99738.66
2022-12-27T13:19:43.536Z,99739.84
2022-12-27T13:20:52.133Z,99736.72
2022-12-27T13:22:06.185Z,99743.98
2022-12-27T13:23:28.997Z,99744.23
2022-12-27T13:24:47.963Z,99746.62
2022-12-27T13:26:01.366Z,99751.48
2022-12-27T13:27:15.779Z,99749.42
2022-12-27T13:28:22.411Z,99751.31
2022-12-27T13:29:38.720Z,99748.77
2022-12-27T13:30:45.316Z,99755.13
2022-12-27T13:31:49.697Z,99756.30
2022-12-27T13:32:59.723Z,99756.22
2022-12-27T13:34:21.500Z,99756.22
2022-12-27T13:35:43.073Z,99756.83
2022-12-27T13:36:55.465Z,99753.19
2022-12-27T13:38:13.162Z,99745.47
2022-12-27T13:39:28.795Z,99753.12
2022-12-27T13:40:35.851Z,99750.95
2022-12-27T13:41:55.954Z,99756.95
2022-12-27T13:43:08.449Z,99761.03
2022-12-27T13:44:22.716Z,99754.23
2022-12-27T13:45:31.751Z,99753.70
2022-12-27T13:46:42.310Z,99756.00
2022-12-27T13:47:42.831Z,99762.61
2022-12-27T13:49:05.251Z,99763.55
2022-12-27T13:50:27.879Z,99760.34
2022-12-27T13:51:33.056Z,99756.09
2022-12-27T13:52:44.789Z,99757.80
2022-12-27T13:53:51.234Z,99765.70
2022-12-27T13:55:07.363Z,99759.66
2022-12-27T13:56:51.848Z,99752.84
2022-12-27T13:57:32.023Z,99767.56
2022-12-27T13:58:37.321Z,99755.84
2022-12-27T13:59:42.066Z,99757.87
2022-12-27T14:00:49.046Z,99765.86
2022-12-27T14:02:10.017Z,99757.44
2022-12-27T14:03:22.503Z,99763.92
2022-12-27T14:04:28.777Z,99759.66
2022-12-27T14:05:47.866Z,99760.67
2022-12-27T14:07:09.837Z,99759.83
2022-12-27T14:08:29.018Z,99760.76
2022-12-27T14:09:34.407Z,99757.27
2022-12-27T14:10:41.466Z,99753.78
2022-12-27T14:11:54.272Z,99752.16
2022-12-27T14:13:02.989Z,99748.80
2022-12-27T14:14:07.641Z,99747.26
2022-12-27T14:15:14.279Z,99747.66
2022-12-27T14:16:31.568Z,99753.38
2022-12-27T14:17:52.215Z,99746.54
2022-12-27T14:19:04.749Z,99748.41
2022-12-27T14:20:11.239Z,99749.70
2022-12-27T14:21:31.654Z,99743.86
2022-12-27T14:22:39.535Z,99743.24
2022-12-27T14:23:44.607Z,99743.69
2022-12-27T14:24:57.050Z,99750.55
2022-12-27T14:26:18.999Z,99741.43
2022-12-27T14:27:33.466Z,99742.97
2022-12-27T14:28:59.626Z,99750.22
2022-12-27T14:30:20.793Z,99740.20
2022-12-27T14:31:42.055Z,99751.83
2022-12-27T14:32:49.178Z,99740.11
2022-12-27T14:34:11.614Z,99743.08
2022-12-27T14:35:19.737Z,99741.54
2022-12-27T14:36:39.837Z,99736.87
2022-12-27T14:38:01.781Z,99738.57
2022-12-27T14:39:21.002Z,99740.77
2022-12-27T14:40:43.173Z,99738.32
2022-12-27T14:42:03.736Z,99745.95
2022-12-27T14:43:25.629Z,99750.83
2022-12-27T14:44:30.908Z,99749.34
2022-12-27T14:45:36.187Z,99745.69
2022-12-27T14:46:48.393Z,99742.12
2022-12-27T14:48:12.128Z,99737.86
2022-12-27T14:50:33.866Z,99736.27
2022-12-27T14:52:01.639Z,99742.28
2022-12-27T14:53:09.282Z,99746.12
2022-12-27T14:54:27.614Z,99753.19
2022-12-27T14:55:47.616Z,99757.24
2022-12-27T14:56:52.892Z,99758.38
2022-12-27T14:57:57.040Z,99758.17
2022-12-27T14:59:01.592Z,99761.58
2022-12-27T15:00:12.719Z,99756.06
2022-12-27T15:01:22.984Z,99762.95
2022-12-27T15:02:43.445Z,99759.38
2022-12-27T15:03:48.281Z,99759.66
2022-12-27T15:05:02.772Z,99758.41
2022-12-27T15:06:10.457Z,99763.23
2022-12-27T15:07:35.268Z,99757.35
2022-12-27T15:08:46.309Z,99759.14
2022-12-27T15:09:56.697Z,99763.67
2022-12-27T15:11:01.972Z,99763.48
2022-12-27T15:12:22.910Z,99762.83
2022-12-27T15:13:34.250Z,99762.52
2022-12-27T15:14:44.886Z,99764.94
2022-12-27T15:15:53.102Z,99774.67
2022-12-27T15:17:01.594Z,99767.61
2022-12-27T15:18:12.929Z,99778.84
2022-12-27T15:19:26.038Z,99780.55
2022-12-27T15:20:38.104Z,99772.89
2022-12-27T15:21:58.868Z,99774.76
2022-12-27T15:23:09.022Z,99777.39
2022-12-27T15:24:20.684Z,99789.99
2022-12-27T15:25:34.960Z,99797.89
2022-12-27T15:26:41.287Z,99798.05
2022-12-27T15:27:55.665Z,99800.69
2022-12-27T15:29:03.752Z,99790.07
2022-12-27T15:30:12.783Z,99791.34
2022-12-27T15:31:20.089Z,99790.48
2022-12-27T15:32:27.321Z,99788.20
2022-12-27T15:33:41.340Z,99789.99
2022-12-27T15:34:58.982Z,99789.54
2022-12-27T15:36:07.132Z,99784.61
2022-12-27T15:37:27.706Z,99779.02
2022-12-27T15:38:52.895Z,99778.11
2022-12-27T15:39:53.736Z,99781.64
2022-12-27T15:40:58.916Z,99790.84
2022-12-27T15:42:19.861Z,99786.06
2022-12-27T15:43:27.962Z,99794.61
2022-12-27T15:44:32.198Z,99795.27
2022-12-27T15:45:43.955Z,99804.95
2022-12-27T15:46:57.404Z,99806.04
2022-12-27T15:48:06.920Z,99804.42
2022-12-27T15:49:19.219Z,99792.75
2022-12-27T15:50:29.109Z,99799.61
2022-12-27T15:51:47.361Z,99797.82
2022-12-27T15:53:07.648Z,99809.41
2022-12-27T15:54:15.220Z,99801.75
2022-12-27T15:55:20.308Z,99800.91
2022-12-27T15:56:42.881Z,99798.95
2022-12-27T15:58:03.750Z,99807.62
2022-12-27T15:59:25.967Z,99817.93
2022-12-27T16:00:34.369Z,99809.83
2022-12-27T16:01:37.205Z,99827.75
2022-12-27T16:02:52.022Z,99822.48
2022-12-27T16:04:00.088Z,99825.30
2022-12-27T16:05:09.751Z,99822.48
2022-12-27T16:06:31.598Z,99825.72
2022-12-27T16:07:36.555Z,99821.55
2022-12-27T16:08:41.935Z,99825.30
2022-12-27T16:09:45.860Z,99821.00
2022-12-27T16:10:50.029Z,99830.84
2022-12-27T16:12:01.385Z,99832.15
2022-12-27T16:13:05.587Z,99828.29
2022-12-27T16:14:23.275Z,99828.09
2022-12-27T16:15:37.876Z,99834.37
2022-12-27T16:16:49.101Z,99829.48
2022-12-27T16:17:57.402Z,99832.70
2022-12-27T16:19:04.572Z,99836.19
2022-12-27T16:20:09.960Z,99840.53
2022-12-27T16:21:27.141Z,99840.03
2022-12-27T16:22:34.018Z,99848.00
2022-12-27T16:23:39.483Z,99854.13
2022-12-27T16:24:42.621Z,99836.86
2022-12-27T16:25:46.486Z,99854.20
2022-12-27T16:27:06.143Z,99858.00
2022-12-27T16:28:15.980Z,99848.67
2022-12-27T16:29:20.026Z,99859.20
2022-12-27T16:30:37.593Z,99870.17
2022-12-27T16:31:45.705Z,99865.28
2022-12-27T16:32:50.483Z,99869.39
2022-12-27T16:33:56.323Z,99873.11
2022-12-27T16:35:17.933Z,99870.11
2022-12-27T16:36:25.183Z,99881.03
2022-12-27T16:37:31.633Z,99884.70
2022-12-27T16:38:38.083Z,99888.48
2022-12-27T16:39:57.134Z,99890.81
2022-12-27T16:41:22.458Z,99891.27
2022-12-27T16:42:27.483Z,99903.66
2022-12-27T16:43:31.681Z,99904.36
2022-12-27T16:44:51.968Z,99905.77
2022-12-27T16:45:59.141Z,99907.54
2022-12-27T16:47:07.383Z,99909.94
2022-12-27T16:48:29.146Z,99903.97
2022-12-27T16:49:34.508Z,99924.60
2022-12-27T16:50:49.090Z,99913.41
2022-12-27T16:52:02.818Z,99916.31
2022-12-27T16:53:16.040Z,99919.27
2022-12-27T16:54:21.333Z,99932.17
2022-12-27T16:55:41.224Z,99938.17
2022-12-27T16:56:46.295Z,99936.33
2022-12-27T16:57:50.114Z,99936.46
2022-12-27T16:58:56.271Z,99950.47
2022-12-27T17:00:04.432Z,99931.72
2022-12-27T17:01:09.612Z,99953.95
2022-12-27T17:02:32.457Z,99941.05
2022-12-27T17:03:40.029Z,99956.17
2022-12-27T17:04:59.946Z,99959.15
2022-12-27T17:06:31.181Z,99961.44
2022-12-27T17:07:12.259Z,99962.08
2022-12-27T17:08:21.831Z,99965.33
2022-12-27T17:09:31.123Z,99963.00